Time;durP1;ratioP1;P1;durP2;ratioP2;P2;SDS_P1;SDS_P2;PMS_P1;PMS_P2;Temp;Humidity;BMP_temperature;BMP_pressure;BME280_temperature;BME280_humidity;BME280_pressure;Samples;Min_cycle;Max_cycle;Signal;HPM_P1;HPM_P2
2021/06/21 00:02:16;;;;;;;7.85;0.98;;;20.20;90.90;;;;;;5055552;28;20029;-82
2021/06/21 00:04:41;;;;;;;7.72;1.38;;;20.10;90.90;;;;;;5054630;28;20446;-82
2021/06/21 00:07:07;;;;;;;3.58;1.00;;;20.10;91.00;;;;;;5054644;28;20025;-81
2021/06/21 00:09:33;;;;;;;5.65;1.20;;;20.10;91.00;;;;;;5054654;28;20072;-82
2021/06/21 00:11:58;;;;;;;4.03;1.05;;;20.00;91.00;;;;;;5054923;28;20373;-81
2021/06/21 00:14:24;;;;;;;4.00;1.15;;;20.00;90.90;;;;;;5054337;28;20481;-81
2021/06/21 00:16:49;;;;;;;5.00;1.10;;;20.00;90.90;;;;;;5071984;28;20025;-82
2021/06/21 00:19:15;;;;;;;4.35;0.88;;;19.90;90.80;;;;;;5059028;28;20024;-81
2021/06/21 00:21:41;;;;;;;4.78;1.00;;;19.90;90.90;;;;;;5064421;28;20468;-81
2021/06/21 00:24:07;;;;;;;10.02;1.17;;;19.90;91.00;;;;;;5039814;28;20029;-81
2021/06/21 00:26:33;;;;;;;5.40;0.90;;;19.90;91.00;;;;;;5039592;28;20481;-82
2021/06/21 00:28:58;;;;;;;5.55;1.10;;;19.90;91.00;;;;;;5039975;28;20029;-80
2021/06/21 00:31:24;;;;;;;5.60;0.98;;;19.90;91.00;;;;;;5039434;28;20029;-81
2021/06/21 00:33:50;;;;;;;8.57;1.40;;;19.90;90.90;;;;;;5039264;28;20099;-82
2021/06/21 00:36:16;;;;;;;5.43;1.35;;;20.00;90.90;;;;;;5039750;28;20111;-81
2021/06/21 00:38:42;;;;;;;6.90;1.15;;;20.00;90.90;;;;;;5039023;28;20029;-82
2021/06/21 00:41:07;;;;;;;8.63;1.27;;;19.90;91.10;;;;;;5039415;28;20025;-81
2021/06/21 00:43:33;;;;;;;6.40;0.98;;;20.00;91.10;;;;;;5038655;28;20063;-82
2021/06/21 00:45:58;;;;;;;10.35;1.20;;;19.90;91.10;;;;;;5039179;28;20549;-80
2021/06/21 00:48:24;;;;;;;6.05;1.17;;;20.00;91.10;;;;;;5056380;28;20500;-80
2021/06/21 00:50:50;;;;;;;7.35;1.45;;;19.90;91.00;;;;;;5038193;28;20017;-79
2021/06/21 00:53:16;;;;;;;5.55;1.70;;;20.00;91.10;;;;;;5039105;28;20029;-80
2021/06/21 00:55:42;;;;;;;4.70;1.35;;;19.90;90.90;;;;;;5038503;28;20040;-79
2021/06/21 00:58:08;;;;;;;11.68;1.50;;;19.90;91.10;;;;;;5038798;28;20025;-80
2021/06/21 01:00:34;;;;;;;2.67;0.90;;;19.80;91.10;;;;;;5055877;28;20035;-80
2021/06/21 01:03:04;;;;;;;6.97;1.08;;;19.80;91.00;;;;;;5038619;28;20477;-79
2021/06/21 01:05:34;;;;;;;4.82;1.08;;;19.80;91.10;;;;;;5038476;28;20024;-81
2021/06/21 01:08:00;;;;;;;6.75;1.38;;;19.80;91.00;;;;;;5038617;28;20040;-80
2021/06/21 01:10:26;;;;;;;4.30;1.20;;;19.80;90.90;;;;;;5038323;28;20029;-79
2021/06/21 01:13:07;;;;;;;4.10;1.33;;;19.80;91.00;;;;;;5037872;28;20028;-80
2021/06/21 01:15:39;;;;;;;6.75;1.27;;;19.80;91.10;;;;;;5055415;28;20029;-82
2021/06/21 01:18:13;;;;;;;7.60;1.05;;;19.80;91.10;;;;;;5038338;28;20036;-80
2021/06/21 01:20:57;;;;;;;7.22;1.23;;;19.70;91.10;;;;;;5034703;28;20013;-80
2021/06/21 01:23:53;;;;;;;6.90;1.17;;;19.70;91.20;;;;;;5018413;28;20107;-81
2021/06/21 01:26:25;;;;;;;9.63;1.10;;;19.60;91.20;;;;;;5018989;28;20481;-81
2021/06/21 01:29:43;;;;;;;6.72;1.42;;;19.50;91.30;;;;;;5018331;28;20021;-81
2021/06/21 01:32:18;;;;;;;6.00;1.00;;;19.50;91.40;;;;;;5018943;28;20025;-82
2021/06/21 01:34:51;;;;;;;8.15;1.55;;;19.50;91.50;;;;;;5018520;28;20124;-81
2021/06/21 01:37:19;;;;;;;8.80;1.25;;;19.50;91.50;;;;;;5018757;28;20030;-81
2021/06/21 01:39:53;;;;;;;5.28;1.10;;;19.50;91.50;;;;;;5018075;28;20093;-82
2021/06/21 01:42:21;;;;;;;10.25;1.23;;;19.50;91.50;;;;;;5018586;28;20029;-81
2021/06/21 01:45:08;;;;;;;9.93;1.20;;;19.50;91.40;;;;;;5024673;28;20110;-81
2021/06/21 01:47:35;;;;;;;12.38;1.67;;;19.50;91.50;;;;;;5036968;28;20063;-82
2021/06/21 01:50:04;;;;;;;4.43;1.10;;;19.50;91.50;;;;;;5037226;28;20120;-81
2021/06/21 01:52:36;;;;;;;6.93;0.90;;;19.40;91.30;;;;;;5054168;28;20024;-81
2021/06/21 01:55:04;;;;;;;3.60;0.80;;;19.40;91.30;;;;;;5056950;28;20445;-81
2021/06/21 01:57:35;;;;;;;3.72;0.88;;;19.40;91.30;;;;;;5056622;28;20057;-78
2021/06/21 02:00:06;;;;;;;7.60;1.30;;;19.30;91.30;;;;;;5055833;28;20074;-79
2021/06/21 02:02:33;;;;;;;6.35;0.90;;;19.30;91.40;;;;;;5056012;28;20055;-79
2021/06/21 02:05:01;;;;;;;5.93;1.08;;;19.30;91.20;;;;;;5056008;28;20055;-79
2021/06/21 02:07:27;;;;;;;4.32;0.95;;;19.20;91.30;;;;;;5073949;28;20028;-78
2021/06/21 02:09:55;;;;;;;8.18;1.42;;;19.20;91.20;;;;;;5055842;28;20115;-78
2021/06/21 02:12:24;;;;;;;3.28;0.65;;;19.20;91.20;;;;;;5056496;28;20107;-79
2021/06/21 02:14:51;;;;;;;7.40;0.90;;;19.20;91.20;;;;;;5055404;28;20047;-79
2021/06/21 02:17:22;;;;;;;7.40;1.10;;;19.20;91.20;;;;;;5056786;28;20032;-79
2021/06/21 02:19:50;;;;;;;10.75;1.55;;;19.20;91.20;;;;;;5055968;28;20025;-80
2021/06/21 02:22:19;;;;;;;8.10;1.20;;;19.20;91.30;;;;;;5056383;28;20506;-79
2021/06/21 02:24:44;;;;;;;4.13;0.93;;;19.10;91.30;;;;;;5073316;28;20028;-79
2021/06/21 02:27:11;;;;;;;5.53;0.95;;;19.10;91.30;;;;;;5056390;28;20028;-79
2021/06/21 02:29:38;;;;;;;4.65;0.90;;;19.10;91.40;;;;;;5054897;28;20024;-80
2021/06/21 02:32:06;;;;;;;5.07;0.90;;;19.10;91.30;;;;;;5073491;28;20129;-79
2021/06/21 02:34:31;;;;;;;4.22;0.90;;;19.10;91.30;;;;;;5055979;28;20064;-79
2021/06/21 02:36:57;;;;;;;4.82;0.68;;;19.10;91.30;;;;;;5055266;28;20052;-79
2021/06/21 02:39:22;;;;;;;5.47;1.10;;;19.10;91.30;;;;;;5055242;28;20024;-79
2021/06/21 02:41:48;;;;;;;3.50;1.10;;;19.10;91.40;;;;;;5053690;28;20025;-79
2021/06/21 02:44:14;;;;;;;6.18;0.90;;;19.10;91.30;;;;;;5033375;28;99651;-79
2021/06/21 02:46:39;;;;;;;7.10;1.13;;;19.10;91.30;;;;;;5028255;28;20033;-80
2021/06/21 02:49:05;;;;;;;9.18;1.10;;;19.10;91.30;;;;;;5036810;28;20480;-79
2021/06/21 02:51:41;;;;;;;6.90;1.30;;;19.10;91.30;;;;;;5036076;28;20433;-79
2021/06/21 02:54:19;;;;;;;4.47;0.98;;;19.10;91.40;;;;;;5036695;28;20040;-79
2021/06/21 02:56:58;;;;;;;3.30;0.85;;;19.00;91.40;;;;;;5036350;28;20036;-80
2021/06/21 02:59:24;;;;;;;6.78;1.08;;;19.10;91.30;;;;;;5036890;28;20056;-80
2021/06/21 03:01:53;;;;;;;5.53;1.20;;;19.10;91.30;;;;;;5035826;28;20020;-79
2021/06/21 03:04:21;;;;;;;5.72;1.40;;;19.10;91.20;;;;;;5036272;28;20029;-80
2021/06/21 03:06:49;;;;;;;6.30;1.00;;;19.10;91.20;;;;;;5035747;28;20108;-80
2021/06/21 03:09:18;;;;;;;4.35;0.90;;;19.10;91.10;;;;;;5036149;28;20029;-80
2021/06/21 03:11:47;;;;;;;2.92;0.93;;;19.10;91.10;;;;;;5053049;28;20029;-80
2021/06/21 03:14:13;;;;;;;7.72;0.93;;;19.10;91.00;;;;;;5035714;28;20102;-80
2021/06/21 03:16:42;;;;;;;7.15;1.10;;;19.00;90.80;;;;;;5035788;28;20035;-82
2021/06/21 03:19:13;;;;;;;5.07;0.95;;;19.00;91.00;;;;;;5035880;28;20060;-80
2021/06/21 03:21:42;;;;;;;4.28;0.90;;;19.10;91.00;;;;;;5036916;28;20493;-82
2021/06/21 03:24:07;;;;;;;7.80;1.65;;;19.00;90.90;;;;;;5033612;28;20037;-80
2021/06/21 03:26:33;;;;;;;7.30;1.00;;;19.00;91.10;;;;;;5016274;28;20036;-80
2021/06/21 03:28:59;;;;;;;3.45;0.80;;;18.90;91.10;;;;;;5015267;28;20180;-80
2021/06/21 03:31:25;;;;;;;5.22;1.10;;;18.90;91.30;;;;;;5016208;28;20025;-79
2021/06/21 03:33:52;;;;;;;6.10;0.88;;;18.90;91.30;;;;;;5032543;28;20040;-80
2021/06/21 03:36:18;;;;;;;9.65;0.80;;;18.80;91.30;;;;;;5015870;28;20489;-80
2021/06/21 03:38:44;;;;;;;6.10;0.93;;;18.80;91.40;;;;;;5015816;28;20056;-80
2021/06/21 03:41:10;;;;;;;4.03;0.90;;;18.80;91.40;;;;;;5016322;28;20091;-79
2021/06/21 03:43:36;;;;;;;4.38;0.77;;;18.80;91.40;;;;;;5018985;28;20064;-80
2021/06/21 03:46:05;;;;;;;7.00;1.45;;;18.80;91.30;;;;;;5053120;28;20021;-80
2021/06/21 03:48:31;;;;;;;4.43;0.98;;;18.90;91.30;;;;;;5035904;28;20078;-80
2021/06/21 03:50:58;;;;;;;4.38;0.77;;;18.90;91.30;;;;;;5058275;28;20021;-79
2021/06/21 03:53:26;;;;;;;7.60;1.35;;;18.90;91.40;;;;;;5073231;28;20036;-79
2021/06/21 03:55:52;;;;;;;10.02;1.23;;;18.90;91.40;;;;;;5054501;28;20031;-78
2021/06/21 03:58:17;;;;;;;7.88;1.20;;;18.90;91.20;;;;;;5072784;28;20052;-79
2021/06/21 04:00:44;;;;;;;4.80;1.00;;;18.90;91.20;;;;;;5054291;28;20129;-82
2021/06/21 04:03:10;;;;;;;4.45;0.80;;;18.90;91.30;;;;;;5055100;28;20039;-79
2021/06/21 04:05:37;;;;;;;4.65;1.00;;;18.90;91.20;;;;;;5072889;28;20025;-78
2021/06/21 04:08:09;;;;;;;6.55;0.90;;;19.00;91.20;;;;;;5055179;28;20655;-80
2021/06/21 04:10:37;;;;;;;6.75;1.30;;;19.00;91.10;;;;;;5055682;28;20020;-80
2021/06/21 04:13:03;;;;;;;5.50;0.93;;;19.10;91.00;;;;;;5055173;28;20055;-80
2021/06/21 04:15:30;;;;;;;5.68;0.90;;;19.10;91.20;;;;;;5054989;28;20035;-80
2021/06/21 04:17:58;;;;;;;5.70;1.02;;;19.10;90.90;;;;;;5055126;28;20025;-80
2021/06/21 04:20:24;;;;;;;7.85;1.20;;;19.10;90.90;;;;;;5054040;28;20033;-80
2021/06/21 04:22:50;;;;;;;4.70;0.93;;;19.10;90.90;;;;;;5034815;28;20036;-80
2021/06/21 04:25:17;;;;;;;5.30;1.20;;;19.10;90.90;;;;;;5035525;28;20025;-79
2021/06/21 04:27:44;;;;;;;5.07;0.98;;;19.10;90.90;;;;;;5035127;28;20124;-80
2021/06/21 04:30:12;;;;;;;6.45;1.00;;;19.10;90.90;;;;;;5034949;28;20033;-79
2021/06/21 04:32:38;;;;;;;6.03;1.00;;;19.10;91.00;;;;;;5052586;28;20025;-80
2021/06/21 04:35:08;;;;;;;7.97;1.00;;;19.10;91.10;;;;;;5034629;28;20044;-79
2021/06/21 04:37:34;;;;;;;3.40;1.20;;;19.20;91.10;;;;;;5033970;28;20150;-79
2021/06/21 04:40:01;;;;;;;5.88;1.17;;;19.20;91.00;;;;;;5033573;28;20127;-79
2021/06/21 04:42:27;;;;;;;4.10;1.17;;;19.20;90.90;;;;;;5034482;28;20036;-79
2021/06/21 04:44:53;;;;;;;4.15;1.08;;;19.20;91.10;;;;;;5051524;28;20468;-80
2021/06/21 04:47:23;;;;;;;8.25;1.50;;;19.20;90.90;;;;;;5035207;28;20079;-79
2021/06/21 04:49:50;;;;;;;8.13;1.67;;;19.20;91.00;;;;;;5034434;28;20116;-79
2021/06/21 04:52:18;;;;;;;7.15;1.52;;;19.20;90.90;;;;;;5015136;28;20053;-79
2021/06/21 04:54:46;;;;;;;4.95;1.35;;;19.20;90.80;;;;;;5011108;28;20052;-82
2021/06/21 04:57:11;;;;;;;7.80;1.63;;;19.30;90.70;;;;;;5032192;28;20033;-79
2021/06/21 04:59:37;;;;;;;8.32;1.40;;;19.30;90.80;;;;;;5032476;28;20110;-79
2021/06/21 05:02:03;;;;;;;5.90;1.90;;;19.30;90.60;;;;;;5031959;28;20383;-79
2021/06/21 05:04:28;;;;;;;8.70;1.30;;;19.30;90.70;;;;;;5017164;28;20446;-79
2021/06/21 05:06:54;;;;;;;6.20;1.20;;;19.30;90.70;;;;;;5017925;28;20026;-79
2021/06/21 05:09:20;;;;;;;10.13;1.52;;;19.30;90.70;;;;;;5018498;28;20053;-79
2021/06/21 05:11:45;;;;;;;8.80;1.45;;;19.30;90.60;;;;;;5017689;28;20025;-80
2021/06/21 05:14:11;;;;;;;4.07;0.98;;;19.40;90.70;;;;;;5018306;28;20482;-80
2021/06/21 05:16:37;;;;;;;6.03;1.30;;;19.30;90.40;;;;;;5018527;28;20028;-79
2021/06/21 05:19:03;;;;;;;7.00;1.30;;;19.40;90.50;;;;;;5017894;28;20112;-79
2021/06/21 05:21:30;;;;;;;6.07;1.65;;;19.40;90.70;;;;;;5027685;28;20025;-79
2021/06/21 05:23:56;;;;;;;5.00;1.23;;;19.40;90.40;;;;;;5054992;28;20057;-79
2021/06/21 05:26:22;;;;;;;9.45;1.60;;;19.50;90.40;;;;;;5037996;28;20385;-80
2021/06/21 05:28:47;;;;;;;5.40;1.10;;;19.50;90.20;;;;;;5037614;28;20064;-80
2021/06/21 05:31:13;;;;;;;6.95;1.30;;;19.60;90.30;;;;;;5055846;28;20057;-79
2021/06/21 05:33:39;;;;;;;4.78;1.08;;;19.60;90.20;;;;;;5034464;28;20030;-80
2021/06/21 05:36:05;;;;;;;5.10;0.90;;;19.60;90.00;;;;;;5036267;28;20382;-79
2021/06/21 05:38:31;;;;;;;3.60;0.88;;;19.70;89.90;;;;;;5037384;28;20021;-79
2021/06/21 05:40:56;;;;;;;5.00;0.90;;;19.80;89.90;;;;;;5037233;28;20025;-79
2021/06/21 05:43:22;;;;;;;4.55;0.80;;;19.80;89.40;;;;;;5037384;28;20033;-79
2021/06/21 05:45:47;;;;;;;6.13;1.17;;;19.80;89.30;;;;;;5037579;28;20112;-80
2021/06/21 05:48:13;;;;;;;5.72;0.73;;;19.90;89.50;;;;;;5055712;28;20038;-79
2021/06/21 05:50:39;;;;;;;6.95;1.17;;;19.90;89.10;;;;;;5037665;28;20025;-80
2021/06/21 05:53:05;;;;;;;7.72;1.27;;;20.00;88.90;;;;;;5037487;28;20060;-79
2021/06/21 05:55:31;;;;;;;4.03;0.88;;;20.00;88.40;;;;;;5037654;28;20452;-80
2021/06/21 05:57:57;;;;;;;2.03;0.77;;;20.00;88.60;;;;;;5037367;28;20029;-80
2021/06/21 06:00:23;;;;;;;5.95;0.98;;;20.00;89.00;;;;;;5055418;28;20071;-80
2021/06/21 06:02:49;;;;;;;4.60;0.75;;;20.00;88.60;;;;;;5036844;28;20132;-79
2021/06/21 06:05:16;;;;;;;7.40;1.30;;;20.10;88.40;;;;;;5037579;28;20136;-79
2021/06/21 06:07:42;;;;;;;4.15;1.00;;;20.10;88.60;;;;;;5036844;28;20029;-79
2021/06/21 06:10:08;;;;;;;8.20;0.88;;;20.10;88.10;;;;;;5037661;28;20035;-80
2021/06/21 06:12:34;;;;;;;4.45;0.88;;;20.20;87.90;;;;;;5037749;28;20114;-80
2021/06/21 06:15:00;;;;;;;4.25;1.00;;;20.20;87.30;;;;;;5035740;28;20334;-81
2021/06/21 06:17:26;;;;;;;6.57;1.10;;;20.30;86.40;;;;;;5037164;28;20033;-80
2021/06/21 06:19:52;;;;;;;5.32;1.00;;;20.40;86.60;;;;;;5037161;28;20079;-80
2021/06/21 06:22:17;;;;;;;4.45;0.75;;;20.40;86.20;;;;;;5020666;28;20030;-80
2021/06/21 06:24:43;;;;;;;3.80;1.00;;;20.50;86.30;;;;;;5016972;28;20037;-81
2021/06/21 06:27:09;;;;;;;4.78;0.95;;;20.50;86.20;;;;;;5035121;28;20443;-79
2021/06/21 06:29:35;;;;;;;6.57;1.25;;;20.60;86.10;;;;;;5017413;28;20458;-89
2021/06/21 06:32:04;;;;;;;2.60;0.70;;;20.60;85.80;;;;;;5017253;28;20509;-93
2021/06/21 06:34:29;;;;;;;2.60;0.52;;;20.60;85.50;;;;;;5017372;28;20033;-92
2021/06/21 06:37:06;;;;;;;4.60;0.77;;;20.50;86.00;;;;;;5017637;28;20032;-90
2021/06/21 06:39:32;;;;;;;5.07;0.70;;;20.60;85.80;;;;;;5019957;28;20021;-90
2021/06/21 06:41:58;;;;;;;5.18;0.95;;;20.60;86.10;;;;;;5019832;28;20030;-91
2021/06/21 06:44:23;;;;;;;5.28;0.95;;;20.60;85.60;;;;;;5023048;28;20059;-91
2021/06/21 06:46:49;;;;;;;7.15;0.93;;;20.60;86.00;;;;;;5037978;28;20020;-89
2021/06/21 06:49:15;;;;;;;5.43;0.77;;;20.60;85.90;;;;;;5037596;28;20029;-92
2021/06/21 06:51:43;;;;;;;4.75;0.90;;;20.60;86.20;;;;;;5044743;28;20037;-89
2021/06/21 06:54:21;;;;;;;2.28;0.80;;;20.60;85.20;;;;;;5057137;28;20098;-90
2021/06/21 06:57:00;;;;;;;3.53;1.02;;;20.60;84.30;;;;;;5059269;28;20029;-93
2021/06/21 06:59:26;;;;;;;5.70;0.80;;;20.60;84.60;;;;;;5076187;28;20017;-90
2021/06/21 07:01:52;;;;;;;6.20;0.98;;;20.70;84.90;;;;;;5056945;28;20024;-93
2021/06/21 07:04:18;;;;;;;5.13;0.80;;;20.70;84.70;;;;;;5075028;28;20029;-92
2021/06/21 07:06:46;;;;;;;4.22;0.70;;;20.70;84.80;;;;;;5055885;28;20040;-92
2021/06/21 07:09:12;;;;;;;3.70;0.70;;;20.80;84.10;;;;;;5056923;28;20036;-91
2021/06/21 07:11:38;;;;;;;5.90;0.82;;;20.90;84.10;;;;;;5056735;28;20028;-92
2021/06/21 07:14:04;;;;;;;4.45;0.60;;;20.90;84.10;;;;;;5055754;28;20053;-89
2021/06/21 07:16:31;;;;;;;6.55;1.25;;;20.90;83.80;;;;;;5074356;28;20024;-93
2021/06/21 07:18:57;;;;;;;5.40;0.80;;;20.90;84.00;;;;;;5056474;28;20029;-91
2021/06/21 07:21:23;;;;;;;6.35;1.10;;;21.00;83.80;;;;;;5047293;28;20032;-90
2021/06/21 07:23:48;;;;;;;2.83;0.60;;;21.00;83.50;;;;;;5023353;28;20029;-92
2021/06/21 07:26:14;;;;;;;8.25;1.17;;;21.00;83.40;;;;;;5036156;28;20222;-95
2021/06/21 07:28:43;;;;;;;6.13;0.98;;;21.10;84.10;;;;;;5036379;28;20021;-90
2021/06/21 07:31:10;;;;;;;2.00;0.68;;;21.10;83.80;;;;;;5036416;28;20029;-91
2021/06/21 07:33:37;;;;;;;8.02;1.08;;;21.10;84.20;;;;;;5036137;28;20033;-90
2021/06/21 07:36:03;;;;;;;5.72;0.93;;;21.20;83.80;;;;;;5035623;28;20120;-91
2021/06/21 07:38:52;;;;;;;7.95;1.10;;;21.20;82.80;;;;;;5035900;28;20068;-93
2021/06/21 07:41:29;;;;;;;3.30;1.00;;;21.30;82.70;;;;;;5035445;28;20036;-90
2021/06/21 07:43:57;;;;;;;3.40;0.73;;;21.30;81.50;;;;;;5040267;28;20045;-91
2021/06/21 07:46:24;;;;;;;5.28;0.95;;;21.30;81.30;;;;;;5055734;28;20532;-90
2021/06/21 07:48:49;;;;;;;3.80;0.70;;;21.30;82.10;;;;;;5055603;28;20020;-90
2021/06/21 07:51:15;;;;;;;7.47;1.45;;;21.30;82.50;;;;;;5056166;28;20120;-89
2021/06/21 07:53:53;;;;;;;5.13;1.05;;;21.30;82.00;;;;;;5057285;28;20095;-95
2021/06/21 07:56:21;;;;;;;3.03;0.73;;;21.40;81.90;;;;;;5056324;28;20024;-86
2021/06/21 07:58:47;;;;;;;6.28;0.85;;;21.40;82.50;;;;;;5055165;28;20025;-91
2021/06/21 08:01:13;;;;;;;7.45;1.00;;;21.50;81.50;;;;;;5073576;28;20017;-91
2021/06/21 08:03:43;;;;;;;4.70;1.17;;;21.50;81.10;;;;;;5055102;28;20036;-87
2021/06/21 08:06:13;;;;;;;4.07;0.65;;;21.60;81.20;;;;;;5055043;28;20020;-80
2021/06/21 08:08:39;;;;;;;3.92;0.98;;;21.60;81.10;;;;;;5073243;28;20044;-88
2021/06/21 08:11:05;;;;;;;4.05;1.00;;;21.70;80.40;;;;;;5073025;28;20480;-93
2021/06/21 08:13:31;;;;;;;2.83;1.00;;;21.70;80.00;;;;;;5055866;28;20041;-89
2021/06/21 08:15:56;;;;;;;4.28;0.80;;;21.70;80.10;;;;;;5055044;28;20020;-90
2021/06/21 08:18:22;;;;;;;3.47;0.85;;;21.70;79.70;;;;;;5055445;28;20077;-93
2021/06/21 08:20:49;;;;;;;2.60;1.00;;;21.70;79.80;;;;;;5054986;28;20102;-91
2021/06/21 08:23:17;;;;;;;2.92;1.00;;;21.70;79.20;;;;;;5055420;28;20496;-89
2021/06/21 08:25:43;;;;;;;6.53;1.00;;;21.70;79.80;;;;;;5054985;28;20031;-92
2021/06/21 08:28:12;;;;;;;4.30;1.08;;;21.80;79.40;;;;;;5073297;28;20036;-92
2021/06/21 08:30:38;;;;;;;5.65;1.10;;;21.80;78.80;;;;;;5055762;28;20025;-91
2021/06/21 08:33:05;;;;;;;5.95;1.08;;;21.80;79.00;;;;;;5055634;28;20041;-94
2021/06/21 08:35:36;;;;;;;3.38;1.20;;;21.90;78.80;;;;;;5055786;28;20124;-94
2021/06/21 08:38:02;;;;;;;2.17;0.88;;;21.90;79.00;;;;;;5055590;28;20029;-93
2021/06/21 08:40:28;;;;;;;6.95;1.02;;;21.90;77.90;;;;;;5059571;28;20035;-90
2021/06/21 08:42:54;;;;;;;4.60;0.90;;;22.00;77.60;;;;;;5058963;28;20063;-90
2021/06/21 08:45:20;;;;;;;1.48;0.73;;;22.10;77.60;;;;;;5059231;28;20040;-88
2021/06/21 08:47:46;;;;;;;5.45;1.00;;;22.10;76.50;;;;;;5076406;28;20043;-88
2021/06/21 08:50:14;;;;;;;2.63;0.80;;;22.20;77.10;;;;;;5059097;28;20048;-88
2021/06/21 08:52:43;;;;;;;2.15;0.80;;;22.20;74.80;;;;;;5039576;28;20021;-88
2021/06/21 08:55:10;;;;;;;3.35;0.70;;;22.30;75.60;;;;;;5057112;28;20021;-89
2021/06/21 08:57:41;;;;;;;3.08;0.82;;;22.40;75.30;;;;;;5039214;28;20048;-87
2021/06/21 09:00:12;;;;;;;5.07;0.80;;;22.60;72.60;;;;;;5038842;28;20028;-86
2021/06/21 09:02:38;;;;;;;2.15;0.57;;;22.70;72.40;;;;;;5056044;28;20024;-88
2021/06/21 09:05:09;;;;;;;3.97;0.80;;;22.60;72.90;;;;;;5038567;28;20397;-85
2021/06/21 09:07:35;;;;;;;4.38;1.00;;;22.80;72.60;;;;;;5056462;28;20485;-89
2021/06/21 09:10:05;;;;;;;4.28;0.75;;;22.80;73.50;;;;;;5037994;28;20505;-89
2021/06/21 09:12:32;;;;;;;3.85;1.00;;;22.80;74.30;;;;;;5039093;28;20056;-87
2021/06/21 09:15:00;;;;;;;3.20;0.73;;;22.90;74.50;;;;;;5038593;28;20123;-88
2021/06/21 09:17:29;;;;;;;3.03;0.80;;;23.00;73.80;;;;;;5038931;28;20028;-90
2021/06/21 09:20:05;;;;;;;5.05;0.85;;;22.90;73.60;;;;;;5038558;28;20029;-96
2021/06/21 09:22:38;;;;;;;2.03;0.93;;;22.80;73.60;;;;;;5034363;28;20049;-85
2021/06/21 09:25:08;;;;;;;2.75;0.60;;;22.80;74.30;;;;;;5036939;28;20068;-90
2021/06/21 09:27:36;;;;;;;2.30;0.90;;;22.80;74.10;;;;;;5056288;28;20028;-88
2021/06/21 09:30:11;;;;;;;5.00;1.10;;;22.90;74.40;;;;;;5038010;28;20090;-89
2021/06/21 09:32:46;;;;;;;2.50;0.70;;;23.00;74.40;;;;;;5056356;28;20021;-87
2021/06/21 09:35:32;;;;;;;2.70;0.70;;;23.10;71.50;;;;;;5038699;28;20064;-88
2021/06/21 09:38:03;;;;;;;2.25;0.88;;;23.40;70.80;;;;;;5037577;28;20040;-85
2021/06/21 09:40:33;;;;;;;;;;;23.40;69.80;;;;;;5056596;28;20028;-87
2021/06/21 09:43:20;;;;;;;2.15;0.80;;;23.40;69.10;;;;;;5055005;28;19935;-88
2021/06/21 09:46:08;;;;;;;1.77;1.00;;;23.50;69.60;;;;;;5037666;28;20110;-89
2021/06/21 09:48:51;;;;;;;3.13;0.98;;;23.60;69.00;;;;;;5038046;28;20052;-87
2021/06/21 09:51:21;;;;;;;1.15;0.80;;;23.60;68.00;;;;;;5051321;28;20060;-91
2021/06/21 09:53:56;;;;;;;2.95;0.90;;;23.60;69.30;;;;;;5037255;28;20029;-92
2021/06/21 09:56:36;;;;;;;5.28;1.30;;;23.60;69.30;;;;;;5037879;28;20075;-89
2021/06/21 09:59:26;;;;;;;2.95;1.25;;;23.60;70.10;;;;;;5037430;28;20090;-92
2021/06/21 10:02:04;;;;;;;5.43;1.40;;;23.70;69.40;;;;;;5036784;28;20078;-91
2021/06/21 10:04:30;;;;;;;4.50;1.10;;;23.70;68.70;;;;;;5036885;28;20025;-93
2021/06/21 10:06:56;;;;;;;3.83;0.98;;;23.70;69.50;;;;;;5055025;28;20525;-89
2021/06/21 10:09:22;;;;;;;3.35;0.98;;;23.70;69.80;;;;;;5038309;28;20056;-90
2021/06/21 10:11:48;;;;;;;2.03;0.80;;;23.70;69.30;;;;;;5037710;28;20025;-87
2021/06/21 10:14:16;;;;;;;5.68;0.80;;;23.70;69.50;;;;;;5056070;28;20071;-93
2021/06/21 10:16:44;;;;;;;1.73;0.80;;;23.60;69.80;;;;;;5037557;28;20033;-93
2021/06/21 10:19:10;;;;;;;2.40;0.80;;;23.60;69.30;;;;;;5038404;28;20040;-92
2021/06/21 10:21:39;;;;;;;3.55;1.15;;;23.50;70.00;;;;;;5048923;28;20028;-90
2021/06/21 10:24:06;;;;;;;3.20;0.80;;;23.60;69.00;;;;;;5074540;28;20533;-92
2021/06/21 10:26:31;;;;;;;2.97;0.82;;;23.70;68.80;;;;;;5057406;28;20024;-89
2021/06/21 10:28:58;;;;;;;2.67;1.15;;;23.90;68.90;;;;;;5056094;28;20526;-87
2021/06/21 10:31:26;;;;;;;4.47;1.02;;;23.90;66.50;;;;;;5053333;28;20450;-85
2021/06/21 10:33:57;;;;;;;2.65;0.63;;;23.90;67.40;;;;;;5053580;28;20033;-92
2021/06/21 10:36:47;;;;;;;1.30;0.77;;;24.10;66.90;;;;;;5055250;28;20017;-91
2021/06/21 10:39:18;;;;;;;1.92;1.00;;;24.20;67.20;;;;;;5055436;28;20025;-84
2021/06/21 10:42:06;;;;;;;4.53;0.80;;;24.10;66.70;;;;;;5054738;28;20111;-91
2021/06/21 10:44:37;;;;;;;3.42;1.10;;;24.00;66.40;;;;;;5056311;28;20049;-95
2021/06/21 10:47:25;;;;;;;2.80;0.90;;;24.00;66.30;;;;;;5054049;28;20025;-91
2021/06/21 10:50:05;;;;;;;2.13;0.80;;;24.00;65.30;;;;;;5053210;28;20039;-92
2021/06/21 10:52:57;;;;;;;2.60;0.90;;;24.10;66.30;;;;;;5054411;28;20032;-86
2021/06/21 10:58:00;;;;;;;2.15;0.70;;;24.40;65.90;;;;;;5055469;28;20055;-95
2021/06/21 11:00:33;;;;;;;1.65;0.80;;;24.50;65.90;;;;;;5037488;28;20021;-93
2021/06/21 11:03:18;;;;;;;3.03;1.25;;;24.60;64.30;;;;;;5036138;28;20032;-94
2021/06/21 11:05:43;;;;;;;1.73;0.80;;;24.70;63.70;;;;;;5054267;28;20212;-84
2021/06/21 11:08:21;;;;;;;2.65;0.80;;;24.90;63.50;;;;;;5036839;28;20454;-92
2021/06/21 11:10:58;;;;;;;2.08;0.90;;;25.00;64.10;;;;;;5036514;28;20047;-91
2021/06/21 11:13:35;;;;;;;2.25;0.90;;;25.10;62.70;;;;;;5036414;28;20040;-85
2021/06/21 11:16:19;;;;;;;2.45;1.00;;;24.90;63.00;;;;;;5036275;28;20179;-86
2021/06/21 11:19:21;;;;;;;1.48;0.90;;;24.80;63.40;;;;;;5053851;28;20446;-87
2021/06/21 11:21:56;;;;;;;4.13;0.80;;;24.70;63.50;;;;;;5032331;28;20036;-86
2021/06/21 11:24:46;;;;;;;2.20;0.75;;;24.60;63.40;;;;;;5042242;28;20102;-89
2021/06/21 11:27:17;;;;;;;1.30;0.80;;;24.60;62.90;;;;;;5056382;28;20036;-87
2021/06/21 11:29:48;;;;;;;1.60;0.77;;;24.60;63.20;;;;;;5059329;28;20031;-88
2021/06/21 11:32:15;;;;;;;1.95;1.02;;;24.70;63.20;;;;;;5057959;28;20028;-91
2021/06/21 11:35:01;;;;;;;2.13;1.05;;;24.90;64.40;;;;;;5056663;28;20040;-87
2021/06/21 11:37:31;;;;;;;2.00;0.77;;;25.10;62.80;;;;;;5056554;28;20183;-92
2021/06/21 11:40:16;;;;;;;2.40;0.80;;;25.20;62.30;;;;;;5073258;28;20056;-90
2021/06/21 11:43:02;;;;;;;3.28;0.90;;;25.20;62.30;;;;;;5055866;28;20118;-83
2021/06/21 11:45:46;;;;;;;3.47;0.80;;;25.10;63.00;;;;;;5059547;28;20135;-90
2021/06/21 11:48:19;;;;;;;3.05;0.75;;;25.00;63.80;;;;;;5056091;28;20020;-91
2021/06/21 11:50:45;;;;;;;1.83;0.60;;;25.00;63.20;;;;;;5051759;28;20112;-91
2021/06/21 11:53:11;;;;;;;2.60;0.80;;;25.10;63.10;;;;;;5036436;28;20109;-91
2021/06/21 11:55:36;;;;;;;3.35;0.80;;;25.10;63.20;;;;;;5037703;28;20029;-92
2021/06/21 11:58:02;;;;;;;3.47;0.70;;;25.10;62.40;;;;;;5035995;28;20040;-92
2021/06/21 12:00:34;;;;;;;2.58;0.70;;;25.20;61.40;;;;;;5036473;28;20025;-88
2021/06/21 12:03:08;;;;;;;3.42;0.80;;;25.40;60.80;;;;;;5035873;28;20025;-89
2021/06/21 12:05:34;;;;;;;1.58;0.90;;;25.60;59.80;;;;;;5035561;28;20025;-90
2021/06/21 12:08:12;;;;;;;2.30;1.10;;;25.70;60.20;;;;;;5035447;28;20036;-88
2021/06/21 12:10:38;;;;;;;2.15;0.70;;;25.70;60.90;;;;;;5036240;28;20021;-92
2021/06/21 12:13:03;;;;;;;2.03;0.80;;;25.70;60.90;;;;;;5034255;28;20128;-88
2021/06/21 12:15:35;;;;;;;1.77;0.80;;;25.70;61.10;;;;;;5053530;28;20541;-89
2021/06/21 12:18:01;;;;;;;3.40;0.90;;;25.80;61.40;;;;;;5035503;28;20112;-91
2021/06/21 12:20:28;;;;;;;2.03;0.98;;;25.90;61.10;;;;;;5036889;28;20029;-89
2021/06/21 12:23:00;;;;;;;1.95;0.70;;;25.90;60.50;;;;;;5044323;28;20021;-91
2021/06/21 12:25:31;;;;;;;1.63;0.68;;;25.90;60.20;;;;;;5059264;28;20017;-88
2021/06/21 12:28:12;;;;;;;2.47;0.90;;;25.90;60.00;;;;;;5038544;28;20056;-85
2021/06/21 12:30:44;;;;;;;1.25;0.60;;;25.90;60.00;;;;;;5073360;28;20025;-84
2021/06/21 12:33:35;;;;;;;3.88;0.90;;;26.00;61.00;;;;;;5073564;28;20044;-86
2021/06/21 12:36:18;;;;;;;2.88;1.10;;;26.10;58.60;;;;;;5054763;28;20526;-86
2021/06/21 12:38:50;;;;;;;2.35;1.02;;;26.10;59.20;;;;;;5055119;28;20362;-86
2021/06/21 12:41:18;;;;;;;1.42;0.98;;;26.10;59.40;;;;;;5055509;28;20031;-87
2021/06/21 12:43:55;;;;;;;4.05;0.95;;;26.00;59.80;;;;;;5072475;28;20056;-82
2021/06/21 12:46:23;;;;;;;1.85;0.80;;;26.00;59.70;;;;;;5055325;28;20021;-86
2021/06/21 12:48:49;;;;;;;1.30;0.77;;;26.00;59.30;;;;;;5054726;28;20465;-87
2021/06/21 12:51:17;;;;;;;1.95;0.68;;;26.30;58.30;;;;;;5050853;28;20032;-83
2021/06/21 12:53:52;;;;;;;1.77;1.00;;;26.50;57.90;;;;;;5046615;28;20040;-84
2021/06/21 12:56:23;;;;;;;2.58;0.90;;;26.60;57.60;;;;;;5055205;28;20031;-80
2021/06/21 12:58:49;;;;;;;3.15;0.90;;;26.80;57.40;;;;;;5054220;28;20074;-81
2021/06/21 13:01:27;;;;;;;3.75;0.70;;;27.00;57.20;;;;;;5072819;28;20099;-79
2021/06/21 13:03:54;;;;;;;2.42;0.73;;;27.20;55.80;;;;;;5054983;28;20039;-90